createdAt,value
2022-11-06T00:00:04.585Z,8.65
2022-11-06T00:04:08.436Z,9.40
2022-11-06T00:08:11.603Z,9.65
2022-11-06T00:12:14.572Z,8.77
2022-11-06T00:16:19.886Z,10.10
2022-11-06T00:20:22.662Z,8.43
2022-11-06T00:24:25.374Z,8.30
2022-11-06T00:28:28.124Z,8.15
2022-11-06T00:32:32.157Z,8.18
2022-11-06T00:36:35.390Z,7.60
2022-11-06T00:40:38.086Z,8.43
2022-11-06T00:44:40.802Z,8.80
2022-11-06T00:48:44.973Z,9.23
2022-11-06T00:52:47.703Z,8.70
2022-11-06T00:56:50.406Z,8.02
2022-11-06T01:00:53.116Z,8.77
2022-11-06T01:04:57.712Z,8.60
2022-11-06T01:09:01.109Z,8.38
2022-11-06T01:13:03.895Z,8.02
2022-11-06T01:17:06.580Z,8.38
2022-11-06T01:21:12.353Z,8.05
2022-11-06T01:25:15.053Z,8.20
2022-11-06T01:29:19.622Z,8.25
2022-11-06T01:33:22.567Z,8.20
2022-11-06T01:37:26.635Z,8.35
2022-11-06T01:41:31.821Z,7.30
2022-11-06T01:45:38.757Z,7.10
2022-11-06T01:49:41.498Z,7.35
2022-11-06T01:53:46.026Z,6.80
2022-11-06T01:57:49.193Z,7.75
2022-11-06T02:01:52.675Z,6.82
2022-11-06T02:05:58.020Z,6.95
2022-11-06T02:10:02.142Z,6.70
2022-11-06T02:14:15.303Z,6.95
2022-11-06T02:18:40.311Z,7.20
2022-11-06T02:23:01.531Z,6.35
2022-11-06T02:27:11.413Z,6.68
2022-11-06T02:31:18.482Z,7.00
2022-11-06T02:35:24.637Z,7.03
2022-11-06T02:39:29.358Z,6.97
2022-11-06T02:43:39.175Z,7.53
2022-11-06T02:47:43.460Z,6.65
2022-11-06T02:51:49.941Z,6.93
2022-11-06T02:55:57.069Z,6.82
2022-11-06T03:00:06.070Z,8.18
2022-11-06T03:04:16.420Z,7.60
2022-11-06T03:08:26.178Z,8.75
2022-11-06T03:12:32.237Z,7.80
2022-11-06T03:16:43.419Z,6.90
2022-11-06T03:20:57.450Z,7.47
2022-11-06T03:25:03.918Z,7.38
2022-11-06T03:29:13.218Z,7.57
2022-11-06T03:33:22.540Z,6.93
2022-11-06T03:37:29.321Z,7.00
2022-11-06T03:41:38.615Z,7.38
2022-11-06T03:45:44.085Z,7.88
2022-11-06T03:49:52.513Z,7.57
2022-11-06T03:53:58.797Z,8.27
2022-11-06T03:58:06.226Z,7.60
2022-11-06T04:02:09.718Z,7.57
2022-11-06T04:06:18.569Z,8.35
2022-11-06T04:10:46.986Z,6.85
2022-11-06T04:14:53.672Z,6.28
2022-11-06T04:18:56.375Z,6.07
2022-11-06T04:23:07.072Z,5.88
2022-11-06T04:27:20.224Z,5.68
2022-11-06T04:31:33.014Z,5.32
2022-11-06T04:35:43.758Z,5.95
2022-11-06T04:39:56.926Z,5.85
2022-11-06T04:44:02.382Z,5.85
2022-11-06T04:48:07.183Z,6.33
2022-11-06T04:52:13.720Z,6.10
2022-11-06T04:56:25.667Z,5.90
2022-11-06T05:00:28.963Z,5.65
2022-11-06T05:04:32.622Z,6.63
2022-11-06T05:08:35.402Z,7.15
2022-11-06T05:12:39.486Z,5.72
2022-11-06T05:16:42.246Z,6.22
2022-11-06T05:20:44.941Z,5.45
2022-11-06T05:24:47.673Z,5.10
2022-11-06T05:28:51.856Z,4.80
2022-11-06T05:32:55.227Z,4.97
2022-11-06T05:36:58.265Z,4.97
2022-11-06T05:41:01.238Z,4.80
2022-11-06T05:45:06.122Z,5.68
2022-11-06T05:49:09.997Z,5.03
2022-11-06T05:53:12.693Z,4.57
2022-11-06T05:57:15.415Z,5.30
2022-11-06T06:01:19.713Z,5.00
2022-11-06T06:05:22.519Z,5.05
2022-11-06T06:09:25.237Z,5.40
2022-11-06T06:13:27.985Z,5.35
2022-11-06T06:17:32.108Z,6.80
2022-11-06T06:21:35.907Z,6.43
2022-11-06T06:25:38.570Z,6.35
2022-11-06T06:29:41.237Z,5.82
2022-11-06T06:33:45.330Z,5.70
2022-11-06T06:37:53.574Z,6.38
2022-11-06T06:41:56.342Z,6.25
2022-11-06T06:45:59.992Z,5.53
2022-11-06T06:50:04.325Z,5.63
2022-11-06T06:54:07.350Z,5.15
2022-11-06T06:58:16.615Z,5.15
2022-11-06T07:02:20.636Z,5.95
2022-11-06T07:06:24.857Z,6.18
2022-11-06T07:10:27.608Z,5.95
2022-11-06T07:14:30.320Z,5.40
2022-11-06T07:18:33.147Z,5.55
2022-11-06T07:22:38.071Z,5.63
2022-11-06T07:26:40.777Z,4.30
2022-11-06T07:30:43.527Z,4.57
2022-11-06T07:34:46.315Z,4.32
2022-11-06T07:38:50.406Z,4.68
2022-11-06T07:42:53.108Z,4.32
2022-11-06T07:46:55.848Z,4.72
2022-11-06T07:50:58.858Z,4.88
2022-11-06T07:55:02.986Z,5.43
2022-11-06T07:59:06.250Z,5.88
2022-11-06T08:03:08.937Z,5.82
2022-11-06T08:07:11.749Z,6.57
2022-11-06T08:11:15.957Z,6.50
2022-11-06T08:15:18.661Z,7.32
2022-11-06T08:19:21.373Z,7.93
2022-11-06T08:23:24.111Z,7.85
2022-11-06T08:27:28.991Z,7.95
2022-11-06T08:31:31.709Z,8.75
2022-11-06T08:35:35.740Z,8.52
2022-11-06T08:39:38.554Z,8.52
2022-11-06T08:43:42.664Z,8.02
2022-11-06T08:47:45.357Z,8.57
2022-11-06T08:51:48.057Z,7.45
2022-11-06T08:55:50.757Z,7.20
2022-11-06T08:59:54.815Z,7.28
2022-11-06T09:03:58.317Z,6.10
2022-11-06T09:08:01.379Z,6.22
2022-11-06T09:12:04.195Z,5.25
2022-11-06T09:16:14.328Z,4.07
2022-11-06T09:20:20.400Z,4.57
2022-11-06T09:24:43.216Z,4.45
2022-11-06T09:28:46.963Z,3.80
2022-11-06T09:32:52.760Z,3.67
2022-11-06T09:36:55.534Z,3.70
2022-11-06T09:41:00.868Z,2.75
2022-11-06T09:45:12.509Z,2.80
2022-11-06T09:49:23.373Z,2.65
2022-11-06T09:53:31.865Z,2.58
2022-11-06T09:57:38.189Z,3.00
2022-11-06T10:01:45.307Z,2.55
2022-11-06T10:05:49.479Z,2.70
2022-11-06T10:09:52.220Z,2.20
2022-11-06T10:14:02.158Z,2.13
2022-11-06T10:18:13.248Z,2.30
2022-11-06T10:22:18.947Z,2.38
2022-11-06T10:26:33.596Z,2.30
2022-11-06T10:30:45.074Z,2.28
2022-11-06T10:34:50.763Z,2.05
2022-11-06T10:38:56.780Z,2.03
2022-11-06T10:43:08.657Z,1.98
2022-11-06T10:47:18.197Z,1.95
2022-11-06T10:51:41.322Z,2.13
2022-11-06T10:56:09.628Z,2.60
2022-11-06T11:00:15.216Z,2.47
2022-11-06T11:04:17.925Z,2.28
2022-11-06T11:08:35.022Z,2.28
2022-11-06T11:12:39.182Z,2.35
2022-11-06T11:16:45.573Z,2.13
2022-11-06T11:20:49.583Z,1.80
2022-11-06T11:25:03.571Z,1.50
2022-11-06T11:29:16.957Z,1.52
2022-11-06T11:33:23.294Z,1.70
2022-11-06T11:37:28.696Z,1.65
2022-11-06T11:41:31.427Z,1.45
2022-11-06T11:45:35.549Z,1.35
2022-11-06T11:49:38.295Z,1.63
2022-11-06T11:53:41.634Z,1.50
2022-11-06T11:57:46.660Z,1.40
2022-11-06T12:01:51.231Z,1.83
2022-11-06T12:05:55.572Z,1.83
2022-11-06T12:09:59.633Z,1.90
2022-11-06T12:14:28.517Z,3.45
2022-11-06T12:18:36.073Z,1.65
2022-11-06T12:22:44.060Z,1.48
2022-11-06T12:26:52.592Z,1.92
2022-11-06T12:31:01.285Z,1.90
2022-11-06T12:35:15.334Z,1.65
2022-11-06T12:39:24.977Z,1.80
2022-11-06T12:43:37.831Z,2.20
2022-11-06T12:47:49.056Z,2.10
2022-11-06T12:52:07.387Z,2.20
2022-11-06T12:56:16.854Z,1.70
2022-11-06T13:00:21.617Z,2.47
2022-11-06T13:04:31.559Z,2.35
2022-11-06T13:08:44.028Z,2.50
2022-11-06T13:12:57.731Z,2.50
2022-11-06T13:17:05.158Z,2.20
2022-11-06T13:21:11.306Z,2.47
2022-11-06T13:25:20.224Z,2.15
2022-11-06T13:29:26.210Z,2.47
2022-11-06T13:33:31.200Z,2.30
2022-11-06T13:37:39.601Z,2.60
2022-11-06T13:41:43.637Z,2.40
2022-11-06T13:45:51.804Z,2.05
2022-11-06T13:50:04.236Z,1.60
2022-11-06T13:54:15.945Z,2.00
2022-11-06T13:58:35.341Z,1.83
2022-11-06T14:03:10.836Z,2.10
2022-11-06T14:07:14.606Z,2.45
2022-11-06T14:11:20.102Z,2.17
2022-11-06T14:15:33.186Z,1.83
2022-11-06T14:19:36.792Z,2.47
2022-11-06T14:23:54.672Z,2.17
2022-11-06T14:28:05.761Z,2.60
2022-11-06T14:32:12.452Z,2.55
2022-11-06T14:36:27.116Z,2.30
2022-11-06T14:40:32.970Z,2.17
2022-11-06T14:44:48.527Z,2.15
2022-11-06T14:48:54.348Z,2.53
2022-11-06T14:53:02.126Z,2.88
2022-11-06T14:57:05.683Z,2.63
2022-11-06T15:01:15.939Z,2.30
2022-11-06T15:05:21.193Z,2.60
2022-11-06T15:09:54.127Z,2.92
2022-11-06T15:13:57.076Z,2.78
2022-11-06T15:18:00.320Z,3.28
2022-11-06T15:22:14.447Z,2.60
2022-11-06T15:26:23.906Z,2.83
2022-11-06T15:30:27.478Z,2.50
2022-11-06T15:34:34.712Z,2.63
2022-11-06T15:38:43.645Z,2.90
2022-11-06T15:42:46.421Z,2.97
2022-11-06T15:46:55.924Z,2.72
2022-11-06T15:50:58.678Z,2.75
2022-11-06T15:55:06.350Z,2.95
2022-11-06T15:59:14.504Z,3.50
2022-11-06T16:03:19.634Z,2.90
2022-11-06T16:07:22.661Z,3.58
2022-11-06T16:11:27.788Z,8.00
2022-11-06T16:15:48.203Z,5.13
2022-11-06T16:19:52.393Z,6.70
2022-11-06T16:23:59.650Z,7.25
2022-11-06T16:28:04.006Z,6.88
2022-11-06T16:32:09.276Z,6.35
2022-11-06T16:36:14.080Z,6.25
2022-11-06T16:40:50.422Z,7.20
2022-11-06T16:45:01.396Z,84.47
2022-11-06T16:49:31.914Z,65.57
2022-11-06T16:53:49.371Z,10.90
2022-11-06T16:57:55.541Z,12.52
2022-11-06T17:02:00.477Z,7.45
2022-11-06T17:06:03.372Z,8.02
2022-11-06T17:10:40.274Z,10.57
2022-11-06T17:14:46.881Z,13.82
2022-11-06T17:22:53.948Z,12.38
2022-11-06T17:26:56.657Z,9.13
2022-11-06T17:30:59.456Z,8.52
2022-11-06T17:35:03.537Z,9.80
2022-11-06T17:39:07.384Z,12.25
2022-11-06T17:43:10.942Z,11.57
2022-11-06T17:47:14.001Z,18.88
2022-11-06T17:51:35.462Z,16.55
2022-11-06T17:55:38.210Z,10.48
2022-11-06T17:59:40.986Z,9.75
2022-11-06T18:03:45.480Z,11.70
2022-11-06T18:07:49.881Z,7.85
2022-11-06T18:11:54.184Z,4.25
2022-11-06T18:15:56.969Z,5.53
2022-11-06T18:19:59.771Z,3.80
2022-11-06T18:24:04.358Z,5.38
2022-11-06T18:28:07.486Z,9.82
2022-11-06T18:32:10.188Z,29.00
2022-11-06T18:36:14.061Z,11.10
2022-11-06T18:40:18.313Z,9.07
2022-11-06T18:44:21.103Z,8.63
2022-11-06T18:48:24.150Z,8.10
2022-11-06T18:52:51.719Z,8.50
2022-11-06T18:56:51.195Z,7.70
2022-11-06T19:00:58.997Z,6.25
2022-11-06T19:05:04.568Z,6.60
2022-11-06T19:09:07.915Z,7.43
2022-11-06T19:13:12.035Z,8.10
2022-11-06T19:17:14.732Z,7.10
2022-11-06T19:21:17.711Z,7.75
2022-11-06T19:25:21.238Z,6.30
2022-11-06T19:29:25.624Z,6.55
2022-11-06T19:33:28.511Z,4.68
2022-11-06T19:37:32.261Z,5.03
2022-11-06T19:41:35.410Z,5.28
2022-11-06T19:45:39.504Z,5.50
2022-11-06T19:49:42.310Z,2.78
2022-11-06T19:53:45.006Z,3.13
2022-11-06T19:57:47.722Z,4.00
2022-11-06T20:01:51.871Z,5.55
2022-11-06T20:05:55.204Z,4.43
2022-11-06T20:10:02.061Z,4.65
2022-11-06T20:14:04.824Z,4.07
2022-11-06T20:18:09.972Z,4.40
2022-11-06T20:22:13.179Z,3.70
2022-11-06T20:26:16.453Z,3.83
2022-11-06T20:30:19.231Z,4.38
2022-11-06T20:34:23.308Z,3.60
2022-11-06T20:38:26.707Z,3.90
2022-11-06T20:42:29.434Z,2.35
2022-11-06T20:46:32.213Z,2.33
2022-11-06T20:50:36.295Z,1.80
2022-11-06T20:54:43.709Z,2.30
2022-11-06T20:58:49.573Z,2.72
2022-11-06T21:02:56.284Z,2.40
2022-11-06T21:07:03.100Z,2.65
2022-11-06T21:11:08.527Z,2.00
2022-11-06T21:15:11.544Z,1.92
2022-11-06T21:19:14.277Z,2.10
2022-11-06T21:23:18.529Z,1.67
2022-11-06T21:27:21.318Z,1.50
2022-11-06T21:31:26.027Z,1.65
2022-11-06T21:35:28.754Z,1.58
2022-11-06T21:39:36.168Z,1.65
2022-11-06T21:43:39.180Z,1.52
2022-11-06T21:47:42.586Z,1.40
2022-11-06T21:51:45.316Z,0.93
2022-11-06T21:56:00.621Z,1.35
2022-11-06T22:00:03.345Z,1.00
2022-11-06T22:04:14.661Z,1.40
2022-11-06T22:08:17.546Z,1.05
2022-11-06T22:12:21.760Z,1.08
2022-11-06T22:16:26.992Z,1.05
2022-11-06T22:20:29.719Z,1.38
2022-11-06T22:24:32.466Z,1.20
2022-11-06T22:28:36.846Z,0.80
2022-11-06T22:32:39.615Z,1.08
2022-11-06T22:36:42.867Z,0.93
2022-11-06T22:40:52.761Z,1.17
2022-11-06T22:44:56.845Z,0.82
2022-11-06T22:49:00.017Z,0.90
2022-11-06T22:53:02.772Z,1.00
2022-11-06T22:57:05.565Z,2.88
2022-11-06T23:01:10.563Z,2.05
2022-11-06T23:05:13.260Z,1.83
2022-11-06T23:09:16.064Z,2.08
2022-11-06T23:13:18.815Z,1.17
2022-11-06T23:17:22.868Z,3.28
2022-11-06T23:21:25.549Z,5.90
2022-11-06T23:25:28.760Z,1.10
2022-11-06T23:29:31.575Z,1.08
2022-11-06T23:33:36.317Z,1.25
2022-11-06T23:37:39.706Z,0.80
2022-11-06T23:41:45.778Z,1.02
2022-11-06T23:45:52.078Z,0.80
2022-11-06T23:49:56.190Z,1.23
2022-11-06T23:53:58.877Z,0.80
2022-11-06T23:58:01.653Z,0.95
